sensor_id;sensor_type;location;lat;lon;timestamp;temperature;humidity
10538;DHT22;5317;49.048;8.468;2023-11-19T00:00:31;13.30;95.10
10538;DHT22;5317;49.048;8.468;2023-11-19T00:02:57;13.30;95.10
10538;DHT22;5317;49.048;8.468;2023-11-19T00:05:25;13.30;95.20
10538;DHT22;5317;49.048;8.468;2023-11-19T00:07:53;13.30;95.20
10538;DHT22;5317;49.048;8.468;2023-11-19T00:10:20;13.30;95.30
10538;DHT22;5317;49.048;8.468;2023-11-19T00:12:48;13.40;95.30
10538;DHT22;5317;49.048;8.468;2023-11-19T00:15:15;13.40;95.50
10538;DHT22;5317;49.048;8.468;2023-11-19T00:17:45;13.30;95.70
10538;DHT22;5317;49.048;8.468;2023-11-19T00:20:16;13.30;95.90
10538;DHT22;5317;49.048;8.468;2023-11-19T00:22:44;13.40;95.80
10538;DHT22;5317;49.048;8.468;2023-11-19T00:25:13;13.40;95.60
10538;DHT22;5317;49.048;8.468;2023-11-19T00:27:41;13.50;95.70
10538;DHT22;5317;49.048;8.468;2023-11-19T00:30:10;13.50;95.70
10538;DHT22;5317;49.048;8.468;2023-11-19T00:32:37;13.60;95.80
10538;DHT22;5317;49.048;8.468;2023-11-19T00:35:05;13.60;95.90
10538;DHT22;5317;49.048;8.468;2023-11-19T00:37:32;13.60;95.90
10538;DHT22;5317;49.048;8.468;2023-11-19T00:40:01;13.70;95.80
10538;DHT22;5317;49.048;8.468;2023-11-19T00:42:30;13.70;96.00
10538;DHT22;5317;49.048;8.468;2023-11-19T00:44:57;13.70;96.00
10538;DHT22;5317;49.048;8.468;2023-11-19T00:47:24;13.80;95.90
10538;DHT22;5317;49.048;8.468;2023-11-19T00:49:51;13.90;95.90
10538;DHT22;5317;49.048;8.468;2023-11-19T00:52:18;13.90;95.90
10538;DHT22;5317;49.048;8.468;2023-11-19T00:54:45;13.90;95.90
10538;DHT22;5317;49.048;8.468;2023-11-19T00:57:14;13.90;95.90
10538;DHT22;5317;49.048;8.468;2023-11-19T00:59:43;13.90;96.00
10538;DHT22;5317;49.048;8.468;2023-11-19T01:02:13;13.90;96.00
10538;DHT22;5317;49.048;8.468;2023-11-19T01:04:40;13.90;96.10
10538;DHT22;5317;49.048;8.468;2023-11-19T01:07:06;13.90;96.10
10538;DHT22;5317;49.048;8.468;2023-11-19T01:09:38;14.00;96.00
10538;DHT22;5317;49.048;8.468;2023-11-19T01:12:06;14.00;96.10
10538;DHT22;5317;49.048;8.468;2023-11-19T01:14:36;14.00;96.20
10538;DHT22;5317;49.048;8.468;2023-11-19T01:17:03;14.00;96.20
10538;DHT22;5317;49.048;8.468;2023-11-19T01:19:30;14.00;96.20
10538;DHT22;5317;49.048;8.468;2023-11-19T01:21:57;14.10;96.20
10538;DHT22;5317;49.048;8.468;2023-11-19T01:24:24;14.10;96.30
10538;DHT22;5317;49.048;8.468;2023-11-19T01:26:54;14.00;96.40
10538;DHT22;5317;49.048;8.468;2023-11-19T01:29:20;14.10;96.40
10538;DHT22;5317;49.048;8.468;2023-11-19T01:31:49;14.10;96.40
10538;DHT22;5317;49.048;8.468;2023-11-19T01:34:16;14.00;96.60
10538;DHT22;5317;49.048;8.468;2023-11-19T01:36:43;14.00;96.70
10538;DHT22;5317;49.048;8.468;2023-11-19T01:39:11;14.10;96.60
10538;DHT22;5317;49.048;8.468;2023-11-19T01:41:41;14.10;96.60
10538;DHT22;5317;49.048;8.468;2023-11-19T01:44:11;14.10;96.60
10538;DHT22;5317;49.048;8.468;2023-11-19T01:46:40;14.10;96.70
10538;DHT22;5317;49.048;8.468;2023-11-19T01:49:10;14.00;96.90
10538;DHT22;5317;49.048;8.468;2023-11-19T01:51:38;14.00;97.20
10538;DHT22;5317;49.048;8.468;2023-11-19T01:54:06;14.00;97.40
10538;DHT22;5317;49.048;8.468;2023-11-19T01:56:33;14.10;97.10
10538;DHT22;5317;49.048;8.468;2023-11-19T01:59:01;14.10;97.10
10538;DHT22;5317;49.048;8.468;2023-11-19T02:01:29;14.00;97.30
10538;DHT22;5317;49.048;8.468;2023-11-19T02:03:58;14.10;97.30
10538;DHT22;5317;49.048;8.468;2023-11-19T02:06:27;14.10;97.30
10538;DHT22;5317;49.048;8.468;2023-11-19T02:08:54;14.00;97.40
10538;DHT22;5317;49.048;8.468;2023-11-19T02:11:21;14.10;97.30
10538;DHT22;5317;49.048;8.468;2023-11-19T02:13:48;14.20;97.10
10538;DHT22;5317;49.048;8.468;2023-11-19T02:16:15;14.20;97.20
10538;DHT22;5317;49.048;8.468;2023-11-19T02:18:41;14.20;97.20
10538;DHT22;5317;49.048;8.468;2023-11-19T02:21:08;14.20;97.20
10538;DHT22;5317;49.048;8.468;2023-11-19T02:23:37;14.20;97.30
10538;DHT22;5317;49.048;8.468;2023-11-19T02:26:12;14.10;97.40
10538;DHT22;5317;49.048;8.468;2023-11-19T02:28:41;14.20;97.40
10538;DHT22;5317;49.048;8.468;2023-11-19T02:31:09;14.20;97.40
10538;DHT22;5317;49.048;8.468;2023-11-19T02:33:36;14.20;97.40
10538;DHT22;5317;49.048;8.468;2023-11-19T02:36:04;14.30;97.30
10538;DHT22;5317;49.048;8.468;2023-11-19T02:38:32;14.30;97.20
10538;DHT22;5317;49.048;8.468;2023-11-19T02:41:01;14.30;97.40
10538;DHT22;5317;49.048;8.468;2023-11-19T02:43:30;14.30;97.40
10538;DHT22;5317;49.048;8.468;2023-11-19T02:46:00;14.20;97.40
10538;DHT22;5317;49.048;8.468;2023-11-19T02:48:27;14.40;97.40
10538;DHT22;5317;49.048;8.468;2023-11-19T02:50:54;14.40;97.60
10538;DHT22;5317;49.048;8.468;2023-11-19T02:53:23;14.40;97.30
10538;DHT22;5317;49.048;8.468;2023-11-19T02:55:53;14.40;97.40
10538;DHT22;5317;49.048;8.468;2023-11-19T02:58:26;14.40;97.40
10538;DHT22;5317;49.048;8.468;2023-11-19T03:00:54;14.50;97.30
10538;DHT22;5317;49.048;8.468;2023-11-19T03:03:26;14.50;97.20
10538;DHT22;5317;49.048;8.468;2023-11-19T03:06:04;14.50;97.20
10538;DHT22;5317;49.048;8.468;2023-11-19T03:08:30;14.50;97.40
10538;DHT22;5317;49.048;8.468;2023-11-19T03:10:58;14.50;97.40
10538;DHT22;5317;49.048;8.468;2023-11-19T03:13:25;14.50;97.50
10538;DHT22;5317;49.048;8.468;2023-11-19T03:15:52;14.50;97.30
10538;DHT22;5317;49.048;8.468;2023-11-19T03:18:19;14.50;97.50
10538;DHT22;5317;49.048;8.468;2023-11-19T03:20:50;14.50;97.50
10538;DHT22;5317;49.048;8.468;2023-11-19T03:23:19;14.50;97.50
10538;DHT22;5317;49.048;8.468;2023-11-19T03:25:46;14.60;97.50
10538;DHT22;5317;49.048;8.468;2023-11-19T03:28:13;14.60;97.40
10538;DHT22;5317;49.048;8.468;2023-11-19T03:30:40;14.60;97.90
10538;DHT22;5317;49.048;8.468;2023-11-19T03:33:07;14.50;97.50
10538;DHT22;5317;49.048;8.468;2023-11-19T03:35:33;14.60;97.50
10538;DHT22;5317;49.048;8.468;2023-11-19T03:38:01;14.60;97.50
10538;DHT22;5317;49.048;8.468;2023-11-19T03:40:28;14.70;97.40
10538;DHT22;5317;49.048;8.468;2023-11-19T03:42:56;14.70;97.40
10538;DHT22;5317;49.048;8.468;2023-11-19T03:45:23;14.70;97.20
10538;DHT22;5317;49.048;8.468;2023-11-19T03:47:50;14.80;97.10
10538;DHT22;5317;49.048;8.468;2023-11-19T03:50:17;14.90;97.10
10538;DHT22;5317;49.048;8.468;2023-11-19T03:52:45;14.80;97.10
10538;DHT22;5317;49.048;8.468;2023-11-19T03:55:13;14.70;97.20
10538;DHT22;5317;49.048;8.468;2023-11-19T03:57:40;14.70;97.30
10538;DHT22;5317;49.048;8.468;2023-11-19T04:00:08;14.80;97.20
10538;DHT22;5317;49.048;8.468;2023-11-19T04:02:35;14.70;97.30
10538;DHT22;5317;49.048;8.468;2023-11-19T04:05:02;14.80;97.20
10538;DHT22;5317;49.048;8.468;2023-11-19T04:07:30;14.90;97.10
10538;DHT22;5317;49.048;8.468;2023-11-19T04:09:58;14.80;97.10
10538;DHT22;5317;49.048;8.468;2023-11-19T04:12:27;14.80;97.20
10538;DHT22;5317;49.048;8.468;2023-11-19T04:14:53;14.90;97.10
10538;DHT22;5317;49.048;8.468;2023-11-19T04:17:21;14.80;97.10
10538;DHT22;5317;49.048;8.468;2023-11-19T04:19:48;14.80;97.20
10538;DHT22;5317;49.048;8.468;2023-11-19T04:22:15;14.80;97.20
10538;DHT22;5317;49.048;8.468;2023-11-19T04:24:42;14.80;97.10
10538;DHT22;5317;49.048;8.468;2023-11-19T04:27:09;14.80;97.20
10538;DHT22;5317;49.048;8.468;2023-11-19T04:29:37;14.90;97.20
10538;DHT22;5317;49.048;8.468;2023-11-19T04:32:05;14.90;97.10
10538;DHT22;5317;49.048;8.468;2023-11-19T04:34:32;14.90;97.20
10538;DHT22;5317;49.048;8.468;2023-11-19T04:36:59;14.90;97.20
10538;DHT22;5317;49.048;8.468;2023-11-19T04:39:28;14.90;97.40
10538;DHT22;5317;49.048;8.468;2023-11-19T04:41:56;14.90;97.40
10538;DHT22;5317;49.048;8.468;2023-11-19T04:44:23;14.90;97.30
10538;DHT22;5317;49.048;8.468;2023-11-19T04:46:51;14.90;97.30
10538;DHT22;5317;49.048;8.468;2023-11-19T04:49:17;14.90;97.40
10538;DHT22;5317;49.048;8.468;2023-11-19T04:51:45;14.90;97.80
10538;DHT22;5317;49.048;8.468;2023-11-19T04:54:13;15.00;97.40
10538;DHT22;5317;49.048;8.468;2023-11-19T04:56:40;15.00;97.30
10538;DHT22;5317;49.048;8.468;2023-11-19T04:59:07;14.90;97.40
10538;DHT22;5317;49.048;8.468;2023-11-19T05:01:34;14.90;97.40
10538;DHT22;5317;49.048;8.468;2023-11-19T05:04:03;15.00;97.50
10538;DHT22;5317;49.048;8.468;2023-11-19T05:06:30;15.00;97.30
10538;DHT22;5317;49.048;8.468;2023-11-19T05:09:00;15.00;97.30
10538;DHT22;5317;49.048;8.468;2023-11-19T05:11:30;14.90;97.40
10538;DHT22;5317;49.048;8.468;2023-11-19T05:13:58;15.00;97.50
10538;DHT22;5317;49.048;8.468;2023-11-19T05:16:25;15.10;97.40
10538;DHT22;5317;49.048;8.468;2023-11-19T05:18:52;15.10;97.20
10538;DHT22;5317;49.048;8.468;2023-11-19T05:21:20;15.20;97.40
10538;DHT22;5317;49.048;8.468;2023-11-19T05:23:47;15.20;97.00
10538;DHT22;5317;49.048;8.468;2023-11-19T05:26:18;15.30;97.00
10538;DHT22;5317;49.048;8.468;2023-11-19T05:28:46;15.30;96.80
10538;DHT22;5317;49.048;8.468;2023-11-19T05:31:13;15.30;96.80
10538;DHT22;5317;49.048;8.468;2023-11-19T05:33:40;15.30;96.80
10538;DHT22;5317;49.048;8.468;2023-11-19T05:36:07;15.40;96.80
10538;DHT22;5317;49.048;8.468;2023-11-19T05:38:36;15.40;96.50
10538;DHT22;5317;49.048;8.468;2023-11-19T05:41:03;15.40;96.70
10538;DHT22;5317;49.048;8.468;2023-11-19T05:43:30;15.50;96.40
10538;DHT22;5317;49.048;8.468;2023-11-19T05:45:57;15.50;96.40
10538;DHT22;5317;49.048;8.468;2023-11-19T05:48:25;15.50;96.40
10538;DHT22;5317;49.048;8.468;2023-11-19T05:50:52;15.50;96.60
10538;DHT22;5317;49.048;8.468;2023-11-19T05:53:20;15.60;96.50
10538;DHT22;5317;49.048;8.468;2023-11-19T05:55:49;15.60;96.40
10538;DHT22;5317;49.048;8.468;2023-11-19T05:58:23;15.60;96.30
10538;DHT22;5317;49.048;8.468;2023-11-19T06:00:51;15.60;96.40
10538;DHT22;5317;49.048;8.468;2023-11-19T06:03:18;15.60;96.30
10538;DHT22;5317;49.048;8.468;2023-11-19T06:05:45;15.60;96.20
10538;DHT22;5317;49.048;8.468;2023-11-19T06:08:12;15.60;96.10
10538;DHT22;5317;49.048;8.468;2023-11-19T06:10:40;15.70;96.00
10538;DHT22;5317;49.048;8.468;2023-11-19T06:13:08;15.70;96.00
10538;DHT22;5317;49.048;8.468;2023-11-19T06:15:37;15.70;95.90
10538;DHT22;5317;49.048;8.468;2023-11-19T06:18:04;15.80;95.80
10538;DHT22;5317;49.048;8.468;2023-11-19T06:20:32;15.80;95.90
10538;DHT22;5317;49.048;8.468;2023-11-19T06:22:59;15.80;95.70
10538;DHT22;5317;49.048;8.468;2023-11-19T06:25:26;15.90;95.70
10538;DHT22;5317;49.048;8.468;2023-11-19T06:27:53;15.90;95.60
10538;DHT22;5317;49.048;8.468;2023-11-19T06:30:21;15.90;95.80
10538;DHT22;5317;49.048;8.468;2023-11-19T06:32:48;15.90;95.70
10538;DHT22;5317;49.048;8.468;2023-11-19T06:35:15;16.00;95.70
10538;DHT22;5317;49.048;8.468;2023-11-19T06:37:42;16.00;95.70
10538;DHT22;5317;49.048;8.468;2023-11-19T06:40:09;16.00;95.60
10538;DHT22;5317;49.048;8.468;2023-11-19T06:42:37;16.00;95.60
10538;DHT22;5317;49.048;8.468;2023-11-19T06:45:05;16.00;95.60
10538;DHT22;5317;49.048;8.468;2023-11-19T06:47:34;16.10;95.60
10538;DHT22;5317;49.048;8.468;2023-11-19T06:50:01;16.10;95.80
10538;DHT22;5317;49.048;8.468;2023-11-19T06:52:32;16.10;95.40
10538;DHT22;5317;49.048;8.468;2023-11-19T06:54:59;16.00;95.60
10538;DHT22;5317;49.048;8.468;2023-11-19T06:57:26;16.00;95.50
10538;DHT22;5317;49.048;8.468;2023-11-19T06:59:53;16.00;95.40
10538;DHT22;5317;49.048;8.468;2023-11-19T07:02:20;16.00;95.30
10538;DHT22;5317;49.048;8.468;2023-11-19T07:04:49;16.10;95.30
10538;DHT22;5317;49.048;8.468;2023-11-19T07:07:17;16.00;95.30
10538;DHT22;5317;49.048;8.468;2023-11-19T07:09:44;16.10;95.20
10538;DHT22;5317;49.048;8.468;2023-11-19T07:12:11;16.10;95.20
10538;DHT22;5317;49.048;8.468;2023-11-19T07:14:39;16.10;95.20
10538;DHT22;5317;49.048;8.468;2023-11-19T07:17:07;16.00;95.50
10538;DHT22;5317;49.048;8.468;2023-11-19T07:19:34;15.90;95.60
10538;DHT22;5317;49.048;8.468;2023-11-19T07:22:03;16.00;95.80
10538;DHT22;5317;49.048;8.468;2023-11-19T07:24:31;15.90;95.80
10538;DHT22;5317;49.048;8.468;2023-11-19T07:26:58;15.90;95.80
10538;DHT22;5317;49.048;8.468;2023-11-19T07:29:25;15.90;95.90
10538;DHT22;5317;49.048;8.468;2023-11-19T07:31:52;15.90;96.30
10538;DHT22;5317;49.048;8.468;2023-11-19T07:34:19;16.00;95.80
10538;DHT22;5317;49.048;8.468;2023-11-19T07:36:46;15.90;95.70
10538;DHT22;5317;49.048;8.468;2023-11-19T07:39:16;15.90;95.90
10538;DHT22;5317;49.048;8.468;2023-11-19T07:41:42;16.00;95.70
10538;DHT22;5317;49.048;8.468;2023-11-19T07:44:09;16.00;95.70
10538;DHT22;5317;49.048;8.468;2023-11-19T07:46:36;16.00;95.60
10538;DHT22;5317;49.048;8.468;2023-11-19T07:49:03;16.00;95.60
10538;DHT22;5317;49.048;8.468;2023-11-19T07:51:30;16.00;95.60
10538;DHT22;5317;49.048;8.468;2023-11-19T07:53:59;16.00;95.50
10538;DHT22;5317;49.048;8.468;2023-11-19T07:56:28;16.00;95.60
10538;DHT22;5317;49.048;8.468;2023-11-19T07:58:54;16.10;95.50
10538;DHT22;5317;49.048;8.468;2023-11-19T08:01:21;16.20;95.30
10538;DHT22;5317;49.048;8.468;2023-11-19T08:03:49;16.30;95.00
10538;DHT22;5317;49.048;8.468;2023-11-19T08:06:16;16.20;94.90
10538;DHT22;5317;49.048;8.468;2023-11-19T08:08:43;16.20;95.10
10538;DHT22;5317;49.048;8.468;2023-11-19T08:11:10;16.30;95.20
10538;DHT22;5317;49.048;8.468;2023-11-19T08:13:38;16.30;95.50
10538;DHT22;5317;49.048;8.468;2023-11-19T08:16:06;16.30;95.40
10538;DHT22;5317;49.048;8.468;2023-11-19T08:18:33;16.30;95.50
10538;DHT22;5317;49.048;8.468;2023-11-19T08:21:00;16.40;95.40
10538;DHT22;5317;49.048;8.468;2023-11-19T08:23:27;16.40;95.30
10538;DHT22;5317;49.048;8.468;2023-11-19T08:25:54;16.40;95.40
10538;DHT22;5317;49.048;8.468;2023-11-19T08:28:21;16.40;95.30
10538;DHT22;5317;49.048;8.468;2023-11-19T08:30:49;16.40;95.40
10538;DHT22;5317;49.048;8.468;2023-11-19T08:33:16;16.40;95.30
10538;DHT22;5317;49.048;8.468;2023-11-19T08:35:44;16.50;95.20
10538;DHT22;5317;49.048;8.468;2023-11-19T08:38:12;16.50;95.10
10538;DHT22;5317;49.048;8.468;2023-11-19T08:40:39;16.60;95.00
10538;DHT22;5317;49.048;8.468;2023-11-19T08:43:06;16.50;94.90
10538;DHT22;5317;49.048;8.468;2023-11-19T08:45:33;16.50;94.70
10538;DHT22;5317;49.048;8.468;2023-11-19T08:48:01;16.60;95.00
10538;DHT22;5317;49.048;8.468;2023-11-19T08:50:28;16.60;94.80
10538;DHT22;5317;49.048;8.468;2023-11-19T08:52:55;16.70;94.70
10538;DHT22;5317;49.048;8.468;2023-11-19T08:55:22;16.80;94.50
10538;DHT22;5317;49.048;8.468;2023-11-19T08:57:49;16.80;94.20
10538;DHT22;5317;49.048;8.468;2023-11-19T09:00:16;16.80;94.00
10538;DHT22;5317;49.048;8.468;2023-11-19T09:02:43;16.90;94.20
10538;DHT22;5317;49.048;8.468;2023-11-19T09:05:11;16.90;94.20
10538;DHT22;5317;49.048;8.468;2023-11-19T09:07:38;16.90;94.10
10538;DHT22;5317;49.048;8.468;2023-11-19T09:10:06;16.90;94.20
10538;DHT22;5317;49.048;8.468;2023-11-19T09:12:34;16.90;94.30
10538;DHT22;5317;49.048;8.468;2023-11-19T09:15:01;16.90;94.40
10538;DHT22;5317;49.048;8.468;2023-11-19T09:17:28;16.90;94.40
10538;DHT22;5317;49.048;8.468;2023-11-19T09:19:55;16.90;94.40
10538;DHT22;5317;49.048;8.468;2023-11-19T09:22:23;16.90;94.70
10538;DHT22;5317;49.048;8.468;2023-11-19T09:24:50;16.90;94.40
10538;DHT22;5317;49.048;8.468;2023-11-19T09:27:18;17.00;94.40
10538;DHT22;5317;49.048;8.468;2023-11-19T09:29:44;17.00;94.40
10538;DHT22;5317;49.048;8.468;2023-11-19T09:32:14;17.00;94.30
10538;DHT22;5317;49.048;8.468;2023-11-19T09:34:41;17.00;94.20
10538;DHT22;5317;49.048;8.468;2023-11-19T09:37:08;17.00;94.30
10538;DHT22;5317;49.048;8.468;2023-11-19T09:39:36;16.90;94.40
10538;DHT22;5317;49.048;8.468;2023-11-19T09:42:04;16.90;94.40
10538;DHT22;5317;49.048;8.468;2023-11-19T09:44:36;17.00;94.40
10538;DHT22;5317;49.048;8.468;2023-11-19T09:47:04;17.10;94.30
10538;DHT22;5317;49.048;8.468;2023-11-19T09:49:32;17.10;94.20
10538;DHT22;5317;49.048;8.468;2023-11-19T09:51:59;17.10;94.10
10538;DHT22;5317;49.048;8.468;2023-11-19T09:54:26;17.10;94.10
10538;DHT22;5317;49.048;8.468;2023-11-19T09:56:55;17.20;94.00
10538;DHT22;5317;49.048;8.468;2023-11-19T09:59:26;17.20;93.90
10538;DHT22;5317;49.048;8.468;2023-11-19T10:01:53;17.20;93.90
10538;DHT22;5317;49.048;8.468;2023-11-19T10:04:23;17.30;93.70
10538;DHT22;5317;49.048;8.468;2023-11-19T10:06:51;17.50;93.80
10538;DHT22;5317;49.048;8.468;2023-11-19T10:09:19;17.50;93.50
10538;DHT22;5317;49.048;8.468;2023-11-19T10:11:45;17.60;93.40
10538;DHT22;5317;49.048;8.468;2023-11-19T10:14:15;17.70;93.20
10538;DHT22;5317;49.048;8.468;2023-11-19T10:16:44;17.70;93.00
10538;DHT22;5317;49.048;8.468;2023-11-19T10:19:18;17.70;92.90
10538;DHT22;5317;49.048;8.468;2023-11-19T10:21:46;17.70;93.10
10538;DHT22;5317;49.048;8.468;2023-11-19T10:24:13;17.70;93.00
10538;DHT22;5317;49.048;8.468;2023-11-19T10:26:40;17.70;92.80
10538;DHT22;5317;49.048;8.468;2023-11-19T10:29:08;17.70;93.00
10538;DHT22;5317;49.048;8.468;2023-11-19T10:31:37;17.70;92.80
10538;DHT22;5317;49.048;8.468;2023-11-19T10:34:03;17.80;92.90
10538;DHT22;5317;49.048;8.468;2023-11-19T10:36:38;17.80;92.90
10538;DHT22;5317;49.048;8.468;2023-11-19T10:39:06;17.90;92.60
10538;DHT22;5317;49.048;8.468;2023-11-19T10:41:34;18.20;92.60
10538;DHT22;5317;49.048;8.468;2023-11-19T10:44:01;18.30;91.80
10538;DHT22;5317;49.048;8.468;2023-11-19T10:46:40;18.30;91.70
10538;DHT22;5317;49.048;8.468;2023-11-19T10:49:07;18.40;91.00
10538;DHT22;5317;49.048;8.468;2023-11-19T10:51:41;18.30;91.40
10538;DHT22;5317;49.048;8.468;2023-11-19T10:54:12;18.30;91.30
10538;DHT22;5317;49.048;8.468;2023-11-19T10:56:43;18.20;91.20
10538;DHT22;5317;49.048;8.468;2023-11-19T10:59:12;18.10;91.10
10538;DHT22;5317;49.048;8.468;2023-11-19T11:01:44;18.00;91.60
10538;DHT22;5317;49.048;8.468;2023-11-19T11:04:13;18.00;91.60
10538;DHT22;5317;49.048;8.468;2023-11-19T11:06:41;18.10;91.70
10538;DHT22;5317;49.048;8.468;2023-11-19T11:09:09;18.10;91.70
10538;DHT22;5317;49.048;8.468;2023-11-19T11:11:38;18.00;91.70
10538;DHT22;5317;49.048;8.468;2023-11-19T11:14:08;18.00;92.00
10538;DHT22;5317;49.048;8.468;2023-11-19T11:16:37;18.20;92.00
10538;DHT22;5317;49.048;8.468;2023-11-19T11:19:08;18.30;91.80
10538;DHT22;5317;49.048;8.468;2023-11-19T11:21:36;18.20;91.70
10538;DHT22;5317;49.048;8.468;2023-11-19T11:24:32;18.10;91.60
10538;DHT22;5317;49.048;8.468;2023-11-19T11:27:32;18.00;91.70
10538;DHT22;5317;49.048;8.468;2023-11-19T11:30:11;18.00;91.90
10538;DHT22;5317;49.048;8.468;2023-11-19T11:32:43;17.90;91.90
10538;DHT22;5317;49.048;8.468;2023-11-19T11:35:27;17.90;92.00
10538;DHT22;5317;49.048;8.468;2023-11-19T11:38:02;17.90;92.20
10538;DHT22;5317;49.048;8.468;2023-11-19T11:40:30;18.10;91.70
10538;DHT22;5317;49.048;8.468;2023-11-19T11:42:57;18.30;91.60
10538;DHT22;5317;49.048;8.468;2023-11-19T11:45:35;18.60;91.30
10538;DHT22;5317;49.048;8.468;2023-11-19T11:48:15;19.10;90.70
10538;DHT22;5317;49.048;8.468;2023-11-19T11:50:56;19.70;90.20
10538;DHT22;5317;49.048;8.468;2023-11-19T11:53:23;20.20;89.50
10538;DHT22;5317;49.048;8.468;2023-11-19T11:55:55;20.50;86.50
10538;DHT22;5317;49.048;8.468;2023-11-19T11:58:32;20.80;86.50
10538;DHT22;5317;49.048;8.468;2023-11-19T12:01:05;21.10;84.40
10538;DHT22;5317;49.048;8.468;2023-11-19T12:03:32;21.50;84.10
10538;DHT22;5317;49.048;8.468;2023-11-19T12:06:01;21.90;81.90
10538;DHT22;5317;49.048;8.468;2023-11-19T12:08:29;21.90;77.90
10538;DHT22;5317;49.048;8.468;2023-11-19T12:10:58;22.30;79.80
10538;DHT22;5317;49.048;8.468;2023-11-19T12:13:44;22.80;78.40
10538;DHT22;5317;49.048;8.468;2023-11-19T12:16:13;23.40;75.00
10538;DHT22;5317;49.048;8.468;2023-11-19T12:18:41;24.10;73.50
10538;DHT22;5317;49.048;8.468;2023-11-19T12:21:09;25.20;70.90
10538;DHT22;5317;49.048;8.468;2023-11-19T12:23:45;26.10;68.00
10538;DHT22;5317;49.048;8.468;2023-11-19T12:26:41;25.50;65.30
10538;DHT22;5317;49.048;8.468;2023-11-19T12:29:09;26.50;62.60
10538;DHT22;5317;49.048;8.468;2023-11-19T12:31:37;28.50;56.40
10538;DHT22;5317;49.048;8.468;2023-11-19T12:34:08;27.10;58.10
10538;DHT22;5317;49.048;8.468;2023-11-19T12:36:39;26.10;61.00
10538;DHT22;5317;49.048;8.468;2023-11-19T12:39:07;24.90;62.20
10538;DHT22;5317;49.048;8.468;2023-11-19T12:41:52;23.80;66.20
10538;DHT22;5317;49.048;8.468;2023-11-19T12:44:20;22.90;68.70
10538;DHT22;5317;49.048;8.468;2023-11-19T12:46:53;22.30;69.90
10538;DHT22;5317;49.048;8.468;2023-11-19T12:49:25;21.70;71.90
10538;DHT22;5317;49.048;8.468;2023-11-19T12:51:53;21.60;72.90
10538;DHT22;5317;49.048;8.468;2023-11-19T12:54:20;21.50;73.70
10538;DHT22;5317;49.048;8.468;2023-11-19T12:56:57;21.20;73.80
10538;DHT22;5317;49.048;8.468;2023-11-19T12:59:24;20.90;73.40
10538;DHT22;5317;49.048;8.468;2023-11-19T13:01:56;20.90;74.70
10538;DHT22;5317;49.048;8.468;2023-11-19T13:04:23;21.00;75.20
10538;DHT22;5317;49.048;8.468;2023-11-19T13:06:55;20.80;76.00
10538;DHT22;5317;49.048;8.468;2023-11-19T13:09:22;20.50;75.00
10538;DHT22;5317;49.048;8.468;2023-11-19T13:11:51;20.30;76.60
10538;DHT22;5317;49.048;8.468;2023-11-19T13:14:18;20.10;77.70
10538;DHT22;5317;49.048;8.468;2023-11-19T13:16:45;20.10;78.20
10538;DHT22;5317;49.048;8.468;2023-11-19T13:19:13;19.90;76.80
10538;DHT22;5317;49.048;8.468;2023-11-19T13:21:42;19.90;77.00
10538;DHT22;5317;49.048;8.468;2023-11-19T13:24:13;19.80;75.90
10538;DHT22;5317;49.048;8.468;2023-11-19T13:26:40;20.20;74.00
10538;DHT22;5317;49.048;8.468;2023-11-19T13:29:07;20.70;72.20
10538;DHT22;5317;49.048;8.468;2023-11-19T13:31:36;20.90;69.10
10538;DHT22;5317;49.048;8.468;2023-11-19T13:34:03;21.20;70.00
10538;DHT22;5317;49.048;8.468;2023-11-19T13:36:32;21.80;68.20
10538;DHT22;5317;49.048;8.468;2023-11-19T13:38:59;22.20;63.30
10538;DHT22;5317;49.048;8.468;2023-11-19T13:41:28;22.00;62.60
10538;DHT22;5317;49.048;8.468;2023-11-19T13:43:54;23.20;63.00
10538;DHT22;5317;49.048;8.468;2023-11-19T13:46:23;24.80;58.30
10538;DHT22;5317;49.048;8.468;2023-11-19T13:48:50;26.70;54.20
10538;DHT22;5317;49.048;8.468;2023-11-19T13:51:17;28.40;53.20
10538;DHT22;5317;49.048;8.468;2023-11-19T13:53:44;29.90;46.10
10538;DHT22;5317;49.048;8.468;2023-11-19T13:56:11;30.50;44.60
10538;DHT22;5317;49.048;8.468;2023-11-19T13:58:41;31.20;42.30
10538;DHT22;5317;49.048;8.468;2023-11-19T14:01:08;31.90;41.80
10538;DHT22;5317;49.048;8.468;2023-11-19T14:03:35;31.40;43.60
10538;DHT22;5317;49.048;8.468;2023-11-19T14:06:01;29.70;43.90
10538;DHT22;5317;49.048;8.468;2023-11-19T14:08:29;27.60;45.40
10538;DHT22;5317;49.048;8.468;2023-11-19T14:10:56;25.70;49.40
10538;DHT22;5317;49.048;8.468;2023-11-19T14:13:26;24.30;51.60
10538;DHT22;5317;49.048;8.468;2023-11-19T14:15:56;23.40;53.80
10538;DHT22;5317;49.048;8.468;2023-11-19T14:18:23;22.70;55.50
10538;DHT22;5317;49.048;8.468;2023-11-19T14:20:49;22.00;56.80
10538;DHT22;5317;49.048;8.468;2023-11-19T14:23:16;21.30;58.20
10538;DHT22;5317;49.048;8.468;2023-11-19T14:25:43;20.90;59.60
10538;DHT22;5317;49.048;8.468;2023-11-19T14:28:10;20.50;60.90
10538;DHT22;5317;49.048;8.468;2023-11-19T14:30:37;20.20;62.30
10538;DHT22;5317;49.048;8.468;2023-11-19T14:33:05;20.00;63.30
10538;DHT22;5317;49.048;8.468;2023-11-19T14:35:33;19.80;63.90
10538;DHT22;5317;49.048;8.468;2023-11-19T14:38:01;19.60;65.30
10538;DHT22;5317;49.048;8.468;2023-11-19T14:40:30;19.50;65.50
10538;DHT22;5317;49.048;8.468;2023-11-19T14:42:57;19.30;66.30
10538;DHT22;5317;49.048;8.468;2023-11-19T14:45:24;19.50;66.90
10538;DHT22;5317;49.048;8.468;2023-11-19T14:47:51;19.50;67.20
10538;DHT22;5317;49.048;8.468;2023-11-19T14:50:20;19.50;67.00
10538;DHT22;5317;49.048;8.468;2023-11-19T14:52:46;19.40;67.20
10538;DHT22;5317;49.048;8.468;2023-11-19T14:55:13;19.40;67.90
10538;DHT22;5317;49.048;8.468;2023-11-19T14:57:40;19.30;68.20
10538;DHT22;5317;49.048;8.468;2023-11-19T15:03:56;19.00;69.10
10538;DHT22;5317;49.048;8.468;2023-11-19T15:06:25;19.00;69.60
10538;DHT22;5317;49.048;8.468;2023-11-19T15:08:52;18.90;69.80
10538;DHT22;5317;49.048;8.468;2023-11-19T15:11:20;18.80;69.90
10538;DHT22;5317;49.048;8.468;2023-11-19T15:13:47;18.80;69.90
10538;DHT22;5317;49.048;8.468;2023-11-19T15:16:14;18.80;70.30
10538;DHT22;5317;49.048;8.468;2023-11-19T15:18:47;18.70;69.60
10538;DHT22;5317;49.048;8.468;2023-11-19T15:21:14;18.70;70.20
10538;DHT22;5317;49.048;8.468;2023-11-19T15:23:43;18.70;70.50
10538;DHT22;5317;49.048;8.468;2023-11-19T15:26:10;18.60;70.50
10538;DHT22;5317;49.048;8.468;2023-11-19T15:28:37;18.60;70.70
10538;DHT22;5317;49.048;8.468;2023-11-19T15:31:04;18.60;71.20
10538;DHT22;5317;49.048;8.468;2023-11-19T15:33:31;18.60;70.80
10538;DHT22;5317;49.048;8.468;2023-11-19T15:35:57;18.50;70.60
10538;DHT22;5317;49.048;8.468;2023-11-19T15:38:26;18.50;70.90
10538;DHT22;5317;49.048;8.468;2023-11-19T15:40:54;18.60;71.30
10538;DHT22;5317;49.048;8.468;2023-11-19T15:43:21;18.60;70.80
10538;DHT22;5317;49.048;8.468;2023-11-19T15:45:48;18.50;71.10
10538;DHT22;5317;49.048;8.468;2023-11-19T15:48:15;18.40;71.30
10538;DHT22;5317;49.048;8.468;2023-11-19T15:50:43;18.50;71.60
10538;DHT22;5317;49.048;8.468;2023-11-19T15:53:10;18.40;71.60
10538;DHT22;5317;49.048;8.468;2023-11-19T15:55:37;18.40;71.90